createdAt,value
2019-04-27T00:00:01.105Z,10.20
2019-04-27T00:02:36.838Z,10.20
2019-04-27T00:05:08.677Z,10.20
2019-04-27T00:07:40.006Z,10.20
2019-04-27T00:10:13.589Z,10.20
2019-04-27T00:12:44.496Z,10.20
2019-04-27T00:15:17.003Z,10.20
2019-04-27T00:17:58.523Z,10.20
2019-04-27T00:20:33.259Z,10.20
2019-04-27T00:23:07.689Z,10.20
2019-04-27T00:25:37.483Z,10.10
2019-04-27T00:28:07.324Z,10.10
2019-04-27T00:30:37.112Z,10.10
2019-04-27T00:33:06.906Z,10.10
2019-04-27T00:35:38.280Z,10.10
2019-04-27T00:38:09.647Z,10.10
2019-04-27T00:40:46.784Z,10.10
2019-04-27T00:43:16.579Z,10.20
2019-04-27T00:45:46.348Z,10.20
2019-04-27T00:48:16.131Z,10.20
2019-04-27T00:50:45.826Z,10.20
2019-04-27T00:53:15.601Z,10.30
2019-04-27T00:55:46.958Z,10.30
2019-04-27T00:58:18.318Z,10.30
2019-04-27T01:03:44.959Z,10.20
2019-04-27T01:06:34.029Z,10.20
2019-04-27T01:09:06.153Z,10.20
2019-04-27T01:11:37.406Z,10.10
2019-04-27T01:14:07.187Z,10.10
2019-04-27T01:16:36.981Z,10.10
2019-04-27T01:19:08.444Z,10.10
2019-04-27T01:21:39.556Z,10.10
2019-04-27T01:24:09.502Z,10.10
2019-04-27T01:26:40.794Z,10.20
2019-04-27T01:29:12.320Z,10.10
2019-04-27T01:31:42.099Z,10.10
2019-04-27T01:34:11.840Z,10.10
2019-04-27T01:36:41.584Z,10.20
2019-04-27T01:39:12.929Z,10.20
2019-04-27T01:41:42.594Z,10.20
2019-04-27T01:44:12.343Z,10.20
2019-04-27T01:46:42.151Z,10.20
2019-04-27T01:49:12.110Z,10.20
2019-04-27T01:51:41.867Z,10.20
2019-04-27T01:54:13.295Z,10.20
2019-04-27T01:56:42.979Z,10.20
2019-04-27T01:59:12.763Z,10.20
2019-04-27T02:01:48.828Z,10.10
2019-04-27T02:04:32.308Z,10.10
2019-04-27T02:07:07.041Z,10.10
2019-04-27T02:09:38.310Z,10.10
2019-04-27T02:12:09.370Z,10.10
2019-04-27T02:14:39.347Z,10.10
2019-04-27T02:17:21.321Z,10.10
2019-04-27T02:19:51.018Z,10.10
2019-04-27T02:22:20.743Z,10.10
2019-04-27T02:24:50.408Z,10.10
2019-04-27T02:27:21.774Z,10.00
2019-04-27T02:30:05.125Z,10.00
2019-04-27T02:32:36.494Z,10.00
2019-04-27T02:35:09.163Z,10.00
2019-04-27T02:37:40.367Z,10.00
2019-04-27T02:40:30.453Z,10.00
2019-04-27T02:43:00.058Z,10.00
2019-04-27T02:45:30.380Z,10.00
2019-04-27T02:48:00.188Z,10.00
2019-04-27T02:50:29.940Z,10.00
2019-04-27T02:52:59.894Z,10.00
2019-04-27T02:55:31.067Z,10.00
2019-04-27T02:58:00.786Z,10.00
2019-04-27T03:00:31.912Z,10.00
2019-04-27T03:03:03.464Z,10.10
2019-04-27T03:05:33.314Z,10.10
2019-04-27T03:08:03.134Z,10.10
2019-04-27T03:10:32.827Z,10.10
2019-04-27T03:13:06.999Z,10.10
2019-04-27T03:15:44.139Z,10.10
2019-04-27T03:18:19.499Z,10.10
2019-04-27T03:20:53.857Z,10.10
2019-04-27T03:23:23.858Z,10.00
2019-04-27T03:26:00.140Z,10.00
2019-04-27T03:28:29.929Z,10.00
2019-04-27T03:31:02.484Z,10.00
2019-04-27T03:33:32.552Z,10.00
2019-04-27T03:36:03.188Z,10.00
2019-04-27T03:38:33.235Z,10.00
2019-04-27T03:41:03.043Z,10.00
2019-04-27T03:43:32.806Z,9.90
2019-04-27T03:46:02.541Z,9.90
2019-04-27T03:48:32.394Z,9.90
2019-04-27T03:51:06.719Z,10.00
2019-04-27T03:56:32.764Z,9.90
2019-04-27T03:59:04.111Z,9.90
2019-04-27T04:01:33.900Z,9.90
2019-04-27T04:04:03.691Z,9.90
2019-04-27T04:06:33.752Z,9.90
2019-04-27T04:09:05.490Z,9.90
2019-04-27T04:11:46.061Z,9.90
2019-04-27T04:14:21.474Z,9.90
2019-04-27T04:17:02.680Z,9.80
2019-04-27T04:19:47.424Z,9.80
2019-04-27T04:22:02.070Z,9.80
2019-04-27T04:24:31.991Z,9.80
2019-04-27T04:27:01.809Z,9.80
2019-04-27T04:29:31.521Z,9.80
2019-04-27T04:32:01.272Z,9.80
2019-04-27T04:34:31.075Z,9.80
2019-04-27T04:37:00.814Z,9.80
2019-04-27T04:39:30.626Z,9.80
2019-04-27T04:42:01.970Z,9.80
2019-04-27T04:44:40.089Z,9.80
2019-04-27T04:47:11.603Z,9.80
2019-04-27T04:49:41.375Z,9.70
2019-04-27T04:52:11.157Z,9.70
2019-04-27T04:54:41.033Z,9.70
2019-04-27T04:57:10.899Z,9.70
2019-04-27T04:59:43.741Z,9.80
2019-04-27T05:02:12.709Z,9.70
2019-04-27T05:04:42.463Z,9.70
2019-04-27T05:07:12.256Z,9.70
2019-04-27T05:09:41.984Z,9.70
2019-04-27T05:12:11.787Z,9.70
2019-04-27T05:14:41.568Z,9.70
2019-04-27T05:17:11.308Z,9.70
2019-04-27T05:19:41.077Z,9.70
2019-04-27T05:22:10.823Z,9.60
2019-04-27T05:24:40.591Z,9.60
2019-04-27T05:27:10.450Z,9.60
2019-04-27T05:29:40.216Z,9.60
2019-04-27T05:32:09.997Z,9.60
2019-04-27T05:34:39.788Z,9.60
2019-04-27T05:37:09.571Z,9.60
2019-04-27T05:39:39.236Z,9.60
2019-04-27T05:42:12.562Z,9.60
2019-04-27T05:45:01.989Z,9.70
2019-04-27T05:47:48.473Z,9.70
2019-04-27T05:50:18.351Z,9.70
2019-04-27T05:52:49.712Z,9.70
2019-04-27T05:55:19.607Z,9.70
2019-04-27T05:57:49.405Z,9.70
2019-04-27T06:00:21.075Z,9.70
2019-04-27T06:02:50.784Z,9.60
2019-04-27T06:05:22.731Z,9.60
2019-04-27T06:07:51.964Z,9.60
2019-04-27T06:10:21.813Z,9.60
2019-04-27T06:12:51.584Z,9.60
2019-04-27T06:15:21.375Z,9.60
2019-04-27T06:17:51.157Z,9.60
2019-04-27T06:20:20.907Z,9.60
2019-04-27T06:22:50.712Z,9.60
2019-04-27T06:25:21.450Z,9.60
2019-04-27T06:27:51.551Z,9.60
2019-04-27T06:30:21.352Z,9.60
2019-04-27T06:32:51.159Z,9.60
2019-04-27T06:35:20.915Z,9.60
2019-04-27T06:37:50.783Z,9.60
2019-04-27T06:40:20.534Z,9.70
2019-04-27T06:42:50.300Z,9.70
2019-04-27T06:45:20.056Z,9.70
2019-04-27T06:47:51.295Z,9.70
2019-04-27T06:50:21.240Z,9.70
2019-04-27T06:52:51.050Z,9.70
2019-04-27T06:55:20.826Z,9.70
2019-04-27T06:57:50.612Z,9.70
2019-04-27T07:00:20.331Z,9.70
2019-04-27T07:02:50.002Z,9.70
2019-04-27T07:05:20.458Z,9.70
2019-04-27T07:07:50.410Z,9.70
2019-04-27T07:10:20.223Z,9.70
2019-04-27T07:12:49.918Z,9.70
2019-04-27T07:15:20.488Z,9.70
2019-04-27T07:17:50.457Z,9.70
2019-04-27T07:20:20.211Z,9.70
2019-04-27T07:22:49.917Z,9.80
2019-04-27T07:25:19.598Z,9.80
2019-04-27T07:27:49.517Z,9.80
2019-04-27T07:30:19.372Z,9.90
2019-04-27T07:32:49.220Z,9.90
2019-04-27T07:35:19.675Z,9.90
2019-04-27T07:37:51.450Z,9.90
2019-04-27T07:40:21.101Z,9.90
2019-04-27T07:42:52.561Z,9.90
2019-04-27T07:45:24.009Z,9.90
2019-04-27T07:48:05.624Z,10.00
2019-04-27T07:50:35.336Z,9.90
2019-04-27T07:53:05.122Z,9.90
2019-04-27T07:55:34.934Z,9.90
2019-04-27T07:58:05.746Z,9.90
2019-04-27T08:00:35.790Z,9.90
2019-04-27T08:03:05.718Z,9.90
2019-04-27T08:05:35.488Z,9.90
2019-04-27T08:08:05.261Z,9.90
2019-04-27T08:10:36.812Z,9.90
2019-04-27T08:13:06.544Z,9.90
2019-04-27T08:15:36.305Z,9.90
2019-04-27T08:18:05.996Z,9.90
2019-04-27T08:20:35.773Z,9.90
2019-04-27T08:23:05.539Z,9.90
2019-04-27T08:25:35.313Z,9.90
2019-04-27T08:28:12.635Z,9.90
2019-04-27T08:31:00.410Z,9.90
2019-04-27T08:33:30.238Z,9.90
2019-04-27T08:36:00.103Z,9.90
2019-04-27T08:38:29.840Z,9.90
2019-04-27T08:40:59.779Z,9.90
2019-04-27T08:43:29.548Z,9.90
2019-04-27T08:46:00.413Z,9.80
2019-04-27T08:48:36.005Z,9.80
2019-04-27T08:51:03.642Z,9.80
2019-04-27T08:53:33.417Z,9.80
2019-04-27T08:56:03.163Z,9.70
2019-04-27T08:58:32.882Z,9.80
2019-04-27T09:01:02.728Z,9.80
2019-04-27T09:03:32.441Z,9.80
2019-04-27T09:06:03.783Z,9.80
2019-04-27T09:08:40.940Z,9.80
2019-04-27T09:11:20.641Z,9.80
2019-04-27T09:13:55.329Z,9.80
2019-04-27T09:16:32.804Z,9.80
2019-04-27T09:19:04.162Z,9.80
2019-04-27T09:21:51.808Z,9.90
2019-04-27T09:24:34.040Z,9.90
2019-04-27T09:27:04.141Z,9.90
2019-04-27T09:29:33.994Z,9.90
2019-04-27T09:32:04.132Z,9.90
2019-04-27T09:34:33.824Z,9.90
2019-04-27T09:37:03.557Z,9.90
2019-04-27T09:39:33.252Z,9.90
2019-04-27T09:42:03.004Z,10.00
2019-04-27T09:44:32.835Z,10.00
2019-04-27T09:47:02.629Z,10.00
2019-04-27T09:49:32.359Z,10.00
2019-04-27T09:52:02.189Z,10.00
2019-04-27T09:54:34.059Z,10.10
2019-04-27T09:57:06.756Z,10.10
2019-04-27T09:59:35.051Z,10.20
2019-04-27T10:02:05.427Z,10.20
2019-04-27T10:04:35.627Z,10.20
2019-04-27T10:07:06.222Z,10.30
2019-04-27T10:09:36.873Z,10.20
2019-04-27T10:12:07.590Z,10.20
2019-04-27T10:14:37.499Z,10.20
2019-04-27T10:17:07.368Z,10.20
2019-04-27T10:19:37.274Z,10.20
2019-04-27T10:22:07.030Z,10.30
2019-04-27T10:24:36.874Z,10.30
2019-04-27T10:27:07.936Z,10.40
2019-04-27T10:29:37.869Z,10.40
2019-04-27T10:32:07.745Z,10.40
2019-04-27T10:34:37.520Z,10.50
2019-04-27T10:37:08.335Z,10.60
2019-04-27T10:39:38.038Z,10.70
2019-04-27T10:42:07.810Z,10.70
2019-04-27T10:44:37.578Z,10.80
2019-04-27T10:47:07.392Z,10.80
2019-04-27T10:49:37.125Z,10.80
2019-04-27T10:52:07.012Z,10.80
2019-04-27T10:54:36.973Z,10.90
2019-04-27T10:57:06.644Z,10.90
2019-04-27T10:59:36.436Z,10.90
2019-04-27T11:02:06.297Z,10.90
2019-04-27T11:04:38.653Z,10.90
2019-04-27T11:07:09.993Z,10.80
2019-04-27T11:09:40.803Z,10.90
2019-04-27T11:12:10.558Z,10.80
2019-04-27T11:14:40.321Z,10.80
2019-04-27T11:17:11.206Z,10.80
2019-04-27T11:19:40.933Z,10.80
2019-04-27T11:22:10.718Z,10.90
2019-04-27T11:24:40.613Z,10.90
2019-04-27T11:27:11.406Z,11.00
2019-04-27T11:29:41.148Z,11.00
2019-04-27T11:32:10.951Z,11.00
2019-04-27T11:34:58.584Z,11.00
2019-04-27T11:37:29.924Z,11.10
2019-04-27T11:39:59.630Z,11.10
2019-04-27T11:42:29.368Z,11.10
2019-04-27T11:44:59.107Z,11.20
2019-04-27T11:47:28.898Z,11.20
2019-04-27T11:49:58.676Z,11.20
2019-04-27T11:52:29.347Z,11.20
2019-04-27T11:54:59.234Z,11.20
2019-04-27T11:57:29.021Z,11.30
2019-04-27T11:59:58.711Z,11.30
2019-04-27T12:02:29.476Z,11.30
2019-04-27T12:04:59.229Z,11.30
2019-04-27T12:07:30.811Z,11.20
2019-04-27T12:10:00.322Z,11.20
2019-04-27T12:12:30.058Z,11.20
2019-04-27T12:14:59.900Z,11.10
2019-04-27T12:17:29.600Z,11.10
2019-04-27T12:20:01.346Z,11.20
2019-04-27T12:22:30.775Z,11.20
2019-04-27T12:25:00.600Z,11.20
2019-04-27T12:27:35.869Z,11.30
2019-04-27T12:30:26.928Z,11.30
2019-04-27T12:32:56.632Z,11.30
2019-04-27T12:35:26.312Z,11.30
2019-04-27T12:37:56.201Z,11.40
2019-04-27T12:40:26.838Z,11.30
2019-04-27T12:42:56.926Z,11.20
2019-04-27T12:45:26.790Z,11.20
2019-04-27T12:47:56.750Z,11.20
2019-04-27T12:50:27.170Z,11.20
2019-04-27T12:53:08.253Z,11.20
2019-04-27T12:55:48.639Z,11.10
2019-04-27T12:58:22.911Z,11.10
2019-04-27T13:00:54.236Z,11.00
2019-04-27T13:03:24.068Z,10.90
2019-04-27T13:05:53.898Z,10.80
2019-04-27T13:08:24.226Z,10.80
2019-04-27T13:10:55.417Z,10.70
2019-04-27T13:13:26.767Z,10.60
2019-04-27T13:15:56.644Z,10.60
2019-04-27T13:18:27.433Z,10.50
2019-04-27T13:20:58.174Z,10.50
2019-04-27T13:23:28.590Z,10.50
2019-04-27T13:25:58.355Z,10.50
2019-04-27T13:28:29.137Z,10.40
2019-04-27T13:30:59.947Z,10.40
2019-04-27T13:33:30.869Z,10.40
2019-04-27T13:36:00.660Z,10.40
2019-04-27T13:38:30.477Z,10.40
2019-04-27T13:41:07.352Z,10.40
2019-04-27T13:43:38.217Z,10.40
2019-04-27T13:46:22.915Z,10.40
2019-04-27T13:49:03.386Z,10.40
2019-04-27T13:51:34.711Z,10.40
2019-04-27T13:54:15.000Z,10.50
2019-04-27T13:56:35.977Z,10.50
2019-04-27T13:59:07.800Z,10.50
2019-04-27T14:01:37.222Z,10.50
2019-04-27T14:04:07.029Z,10.50
2019-04-27T14:06:37.215Z,10.50
2019-04-27T14:09:09.276Z,10.50
2019-04-27T14:11:39.910Z,10.50
2019-04-27T14:14:09.871Z,10.60
2019-04-27T14:16:43.692Z,10.60
2019-04-27T14:19:11.088Z,10.50
2019-04-27T14:21:40.970Z,10.50
2019-04-27T14:24:10.750Z,10.50
2019-04-27T14:26:40.501Z,10.50
2019-04-27T14:29:10.213Z,10.50
2019-04-27T14:31:40.015Z,10.50
2019-04-27T14:34:09.713Z,10.40
2019-04-27T14:36:40.616Z,10.40
2019-04-27T14:39:12.615Z,10.40
2019-04-27T14:41:42.613Z,10.40
2019-04-27T14:44:12.537Z,10.40
2019-04-27T14:46:43.338Z,10.30
2019-04-27T14:49:13.041Z,10.30
2019-04-27T14:51:42.807Z,10.30
2019-04-27T14:54:12.588Z,10.30
2019-04-27T14:56:42.376Z,10.20
2019-04-27T14:59:12.071Z,10.20
2019-04-27T15:01:41.778Z,10.10
2019-04-27T15:04:11.623Z,10.10
2019-04-27T15:06:41.353Z,10.10
2019-04-27T15:09:13.472Z,10.10
2019-04-27T15:14:23.812Z,10.00
2019-04-27T15:16:53.722Z,10.00
2019-04-27T15:19:25.134Z,10.00
2019-04-27T15:21:58.575Z,10.00
2019-04-27T15:24:26.381Z,10.10
2019-04-27T15:27:00.726Z,10.10
2019-04-27T15:29:29.149Z,10.10
2019-04-27T15:32:03.082Z,10.10
2019-04-27T15:34:42.641Z,10.10
2019-04-27T15:37:20.986Z,10.10
2019-04-27T15:40:08.975Z,10.10
2019-04-27T15:42:49.050Z,10.10
2019-04-27T15:45:15.911Z,10.10
2019-04-27T15:47:47.731Z,10.10
2019-04-27T15:50:15.719Z,10.00
2019-04-27T15:52:45.502Z,10.10
2019-04-27T15:55:31.591Z,10.00
2019-04-27T15:57:48.326Z,10.00
2019-04-27T16:00:21.036Z,10.00
2019-04-27T16:02:52.672Z,10.00
2019-04-27T16:05:23.610Z,10.00
2019-04-27T16:07:53.627Z,10.00
2019-04-27T16:10:23.451Z,10.10
2019-04-27T16:13:06.030Z,10.10
2019-04-27T16:15:24.617Z,10.10
2019-04-27T16:17:56.048Z,10.10
2019-04-27T16:20:30.216Z,10.10
2019-04-27T16:23:03.155Z,10.10
2019-04-27T16:25:31.560Z,10.10
2019-04-27T16:28:00.149Z,10.10
2019-04-27T16:30:29.918Z,10.10
2019-04-27T16:32:59.728Z,10.10
2019-04-27T16:35:29.438Z,10.10
2019-04-27T16:38:03.327Z,10.10
2019-04-27T16:40:33.174Z,10.10
2019-04-27T16:43:02.888Z,10.10
2019-04-27T16:45:32.975Z,10.10
2019-04-27T16:48:02.799Z,10.10
2019-04-27T16:50:33.180Z,10.00
2019-04-27T16:53:02.910Z,10.00
2019-04-27T16:55:34.155Z,10.00
2019-04-27T16:58:04.060Z,10.00
2019-04-27T17:00:33.842Z,10.10
2019-04-27T17:03:06.623Z,10.10
2019-04-27T17:05:35.434Z,10.10
2019-04-27T17:08:05.368Z,10.10
2019-04-27T17:10:35.264Z,10.10
2019-04-27T17:13:10.596Z,10.10
2019-04-27T17:15:55.537Z,10.10
2019-04-27T17:18:30.912Z,10.10
2019-04-27T17:21:09.991Z,10.00
2019-04-27T17:23:32.261Z,10.00
2019-04-27T17:26:06.283Z,10.00
2019-04-27T17:28:37.566Z,10.00
2019-04-27T17:31:08.549Z,10.00
2019-04-27T17:33:39.554Z,10.00
2019-04-27T17:36:12.117Z,10.00
2019-04-27T17:38:42.627Z,9.90
2019-04-27T17:41:12.706Z,9.90
2019-04-27T17:43:42.810Z,10.00
2019-04-27T17:46:13.154Z,9.90
2019-04-27T17:48:43.091Z,9.90
2019-04-27T17:51:13.022Z,9.80
2019-04-27T17:53:42.780Z,9.80
2019-04-27T17:56:12.558Z,9.80
2019-04-27T17:58:42.353Z,9.80
2019-04-27T18:01:14.151Z,9.70
2019-04-27T18:03:44.435Z,9.70
2019-04-27T18:06:14.107Z,9.70
2019-04-27T18:08:45.048Z,9.70
2019-04-27T18:11:14.927Z,9.70
2019-04-27T18:13:44.729Z,9.60
2019-04-27T18:16:14.487Z,9.60
2019-04-27T18:18:52.643Z,9.60
2019-04-27T18:21:24.029Z,9.60
2019-04-27T18:23:55.443Z,9.70
2019-04-27T18:26:27.793Z,9.70
2019-04-27T18:29:01.452Z,9.70
2019-04-27T18:31:29.619Z,9.70
2019-04-27T18:34:00.756Z,9.70
2019-04-27T18:36:30.539Z,9.80
2019-04-27T18:39:00.334Z,9.80
2019-04-27T18:41:31.566Z,9.80
2019-04-27T18:44:01.482Z,9.80
2019-04-27T18:46:31.272Z,9.80
2019-04-27T18:49:02.597Z,9.80
2019-04-27T18:51:33.945Z,9.80
2019-04-27T18:54:04.125Z,9.80
2019-04-27T18:56:38.581Z,9.80
2019-04-27T18:59:05.177Z,9.80
2019-04-27T19:01:34.924Z,9.80
2019-04-27T19:04:05.849Z,9.80
2019-04-27T19:06:39.079Z,9.70
2019-04-27T19:09:08.288Z,9.70
2019-04-27T19:11:59.077Z,9.70
2019-04-27T19:14:28.817Z,9.70
2019-04-27T19:16:58.838Z,9.70
2019-04-27T19:19:28.791Z,9.70
2019-04-27T19:21:59.025Z,9.70
2019-04-27T19:24:29.192Z,9.70
2019-04-27T19:27:15.336Z,9.70
2019-04-27T19:29:38.149Z,9.70
2019-04-27T19:32:08.126Z,9.60
2019-04-27T19:34:38.868Z,9.70
2019-04-27T19:37:08.795Z,9.70
2019-04-27T19:39:39.377Z,9.70
2019-04-27T19:42:09.292Z,9.70
2019-04-27T19:44:39.074Z,9.70
2019-04-27T19:50:44.302Z,9.60
2019-04-27T19:53:14.263Z,9.60
2019-04-27T19:55:45.630Z,9.60
2019-04-27T19:58:16.446Z,9.60
2019-04-27T20:01:13.927Z,9.60
2019-04-27T20:03:43.578Z,9.60
2019-04-27T20:06:13.363Z,9.60
2019-04-27T20:08:44.720Z,9.60
2019-04-27T20:11:14.466Z,9.60
2019-04-27T20:13:44.197Z,9.60
2019-04-27T20:16:13.976Z,9.60
2019-04-27T20:18:44.734Z,9.60
2019-04-27T20:21:14.486Z,9.70
2019-04-27T20:23:45.716Z,9.60
2019-04-27T20:26:15.397Z,9.70
2019-04-27T20:28:45.113Z,9.70
2019-04-27T20:31:14.860Z,9.70
2019-04-27T20:33:44.642Z,9.70
2019-04-27T20:36:14.342Z,9.60
2019-04-27T20:38:44.202Z,9.70
2019-04-27T20:41:13.836Z,9.70
2019-04-27T20:43:43.612Z,9.70
2019-04-27T20:46:13.389Z,9.70
2019-04-27T20:48:43.146Z,9.70
2019-04-27T20:51:12.915Z,9.70
2019-04-27T20:53:44.272Z,9.70
2019-04-27T20:56:13.959Z,9.70
2019-04-27T20:58:43.731Z,9.70
2019-04-27T21:01:13.700Z,9.70
2019-04-27T21:03:45.040Z,9.70
2019-04-27T21:06:25.390Z,9.60
2019-04-27T21:08:55.188Z,9.60
2019-04-27T21:11:26.512Z,9.50
2019-04-27T21:13:57.009Z,9.50
2019-04-27T21:16:26.906Z,9.50
2019-04-27T21:18:56.707Z,9.50
2019-04-27T21:21:26.414Z,9.50
2019-04-27T21:23:56.154Z,9.50
2019-04-27T21:26:25.935Z,9.50
2019-04-27T21:28:55.770Z,9.50
2019-04-27T21:31:25.463Z,9.40
2019-04-27T21:33:55.236Z,9.40
2019-04-27T21:36:25.015Z,9.50
2019-04-27T21:38:54.854Z,9.40
2019-04-27T21:41:24.563Z,9.40
2019-04-27T21:43:54.340Z,9.40
2019-04-27T21:46:24.795Z,9.40
2019-04-27T21:48:54.552Z,9.40
2019-04-27T21:51:24.316Z,9.40
2019-04-27T21:53:56.694Z,9.50
2019-04-27T21:56:26.735Z,9.50
2019-04-27T21:58:56.371Z,9.50
2019-04-27T22:01:28.944Z,9.50
2019-04-27T22:03:58.639Z,9.50
2019-04-27T22:06:28.529Z,9.50
2019-04-27T22:08:58.318Z,9.60
2019-04-27T22:11:29.106Z,9.60
2019-04-27T22:13:58.939Z,9.60
2019-04-27T22:16:28.640Z,9.60
2019-04-27T22:18:58.398Z,9.50
2019-04-27T22:21:28.198Z,9.50
2019-04-27T22:24:00.987Z,9.50
2019-04-27T22:26:31.471Z,9.50
2019-04-27T22:29:01.595Z,9.50
2019-04-27T22:31:31.559Z,9.50
2019-04-27T22:34:02.908Z,9.50
2019-04-27T22:36:32.700Z,9.50
2019-04-27T22:39:04.031Z,9.50
2019-04-27T22:41:36.963Z,9.50
2019-04-27T22:44:08.313Z,9.50
2019-04-27T22:46:42.687Z,9.50
2019-04-27T22:49:12.508Z,9.50
2019-04-27T22:51:43.134Z,9.40
2019-04-27T22:54:13.259Z,9.40
2019-04-27T22:56:44.562Z,9.40
2019-04-27T22:59:21.890Z,9.40
2019-04-27T23:01:55.981Z,9.40
2019-04-27T23:04:33.128Z,9.30
2019-04-27T23:07:02.972Z,9.30
2019-04-27T23:09:33.911Z,9.30
2019-04-27T23:12:06.473Z,9.30
2019-04-27T23:14:36.247Z,9.30
2019-04-27T23:20:18.025Z,9.30
2019-04-27T23:22:47.683Z,9.30
2019-04-27T23:25:17.413Z,9.30
2019-04-27T23:27:47.198Z,9.30
2019-04-27T23:30:17.473Z,9.20
2019-04-27T23:32:49.055Z,9.20
2019-04-27T23:35:18.739Z,9.20
2019-04-27T23:37:48.428Z,9.20
2019-04-27T23:40:18.187Z,9.20
2019-04-27T23:42:47.940Z,9.20
2019-04-27T23:45:17.836Z,9.20
2019-04-27T23:47:47.629Z,9.20
2019-04-27T23:50:17.507Z,9.10
2019-04-27T23:53:01.958Z,9.10
2019-04-27T23:55:36.212Z,9.10
2019-04-27T23:58:05.944Z,9.10
